»·PEaware :: UAL180 KLAX-KPHX

UAL180 :: KLAX-KPHX

FLIGHT INFORMATION

Flight Status: Arrived
Operator:
United Airlines
More flights by this operator :: More flights under this callsign
Pilot: Etienne B. (28927)
Aircraft: AIRBUS A320
(A320)
More flights by this aircraft type
Origin: KLAX Los Angeles Intl
United States
Destination: KPHX Phoenix Sky Harbor Intl
United States
More flights between these airports :: More routes between these airports
Route: +DOTSS2 CNERY BLH HYDRR1
File this flight plan on PilotEdge
Remarks: RMK / SIMBRIEF
Altitude:
(Current/Filed)
35,000ft
Speed:
(Current/Filed)
431kts
Departed: 19-Apr-20 03:45 PM
Arrived: 19-Apr-20 04:38 PM
Distance/Time
Traveled:
321nm/0:52
Distance/Time
To Go:
Arrived

Flight Plot

Page will automatically refresh every two minutes.

Flight plan parsing failed; only flown route is shown


Map Options




Map Legend


Flown Route
Filed Route
Departure Airport
Arrival Airport
Navaid (VOR, NDB)
Fix

Horizontal Profiles

Position Reports

Time Latitude Longitude Heading Altitude Ground
Speed
19-Apr-20 15:22 33.941718 -118.402661 81 126ft 0kts
19-Apr-20 15:23 33.941718 -118.402661 81 126ft 0kts
19-Apr-20 15:24 33.941718 -118.402661 81 126ft 0kts
19-Apr-20 15:25 33.941718 -118.402661 81 126ft 0kts
19-Apr-20 15:26 33.941718 -118.402661 81 126ft 0kts
19-Apr-20 15:27 33.941718 -118.402661 81 126ft 0kts
19-Apr-20 15:28 33.941718 -118.402661 81 126ft 0kts
19-Apr-20 15:29 33.941718 -118.402661 81 126ft 0kts
19-Apr-20 15:30 33.941718 -118.402661 81 126ft 0kts
19-Apr-20 15:31 33.941718 -118.402661 81 126ft 0kts
19-Apr-20 15:32 33.941683 -118.402916 89 126ft 2kts
19-Apr-20 15:33 33.942003 -118.403344 177 126ft 1kts
19-Apr-20 15:34 33.942041 -118.403348 173 126ft 0kts
19-Apr-20 15:35 33.941817 -118.403318 173 126ft 6kts
19-Apr-20 15:36 33.940199 -118.403075 173 127ft 0kts
19-Apr-20 15:37 33.940199 -118.403075 173 127ft 0kts
19-Apr-20 15:39 33.940199 -118.403075 173 127ft 0kts
19-Apr-20 15:40 33.939386 -118.402038 83 125ft 14kts
19-Apr-20 15:41 33.940309 -118.392799 80 111ft 36kts
19-Apr-20 15:42 33.941119 -118.384354 84 106ft 1kts
19-Apr-20 15:43 33.940644 -118.381702 82 105ft 17kts
19-Apr-20 15:44 33.939880 -118.380172 241 104ft 10kts
19-Apr-20 15:45 33.936139 -118.414177 261 956ft 187kts
19-Apr-20 15:46 33.921346 -118.478821 231 3946ft 237kts
19-Apr-20 15:47 33.861805 -118.543638 222 5397ft 328kts
19-Apr-20 15:48 33.773588 -118.545445 168 8305ft 347kts
19-Apr-20 15:49 33.682990 -118.497671 125 10472ft 380kts
19-Apr-20 15:50 33.655567 -118.384236 110 14081ft 364kts
19-Apr-20 15:51 33.644358 -118.259413 90 16086ft 392kts
19-Apr-20 15:52 33.644611 -118.125701 91 18088ft 409kts
19-Apr-20 15:53 33.644531 -117.986783 91 19901ft 426kts
19-Apr-20 15:54 33.644230 -117.843645 91 21541ft 441kts
19-Apr-20 15:55 33.620842 -117.700439 109 23067ft 449kts
19-Apr-20 15:56 33.584833 -117.554748 109 24487ft 462kts
19-Apr-20 15:56 33.553887 -117.429978 109 25600ft 472kts
19-Apr-20 15:58 33.509810 -117.252170 107 27025ft 486kts
19-Apr-20 15:59 33.502839 -117.087539 92 28091ft 502kts
19-Apr-20 15:59 33.500928 -116.946655 92 28878ft 511kts
19-Apr-20 16:00 33.498284 -116.774738 92 29759ft 522kts
19-Apr-20 16:02 33.494819 -116.569827 92 30750ft 533kts
19-Apr-20 16:02 33.492125 -116.422113 92 31668ft 534kts
19-Apr-20 16:03 33.489504 -116.244672 92 32666ft 534kts
19-Apr-20 16:04 33.486971 -116.066828 89 33581ft 535kts
19-Apr-20 16:05 33.526386 -115.896039 67 34448ft 533kts
19-Apr-20 16:06 33.575393 -115.728460 68 34940ft 531kts
19-Apr-20 16:07 33.622659 -115.560789 76 34944ft 533kts
19-Apr-20 16:08 33.613921 -115.385277 95 34933ft 532kts
19-Apr-20 16:09 33.608565 -115.208908 93 34892ft 528kts
19-Apr-20 16:10 33.603830 -115.032739 93 34641ft 536kts
19-Apr-20 16:11 33.598688 -114.851122 92 33659ft 547kts
19-Apr-20 16:12 33.579362 -114.674344 106 32710ft 528kts
19-Apr-20 16:13 33.546220 -114.504582 106 31004ft 520kts
19-Apr-20 16:14 33.513409 -114.337408 107 28624ft 510kts
19-Apr-20 16:15 33.482764 -114.181765 107 26378ft 456kts
19-Apr-20 16:16 33.455014 -114.042379 108 24700ft 414kts
19-Apr-20 16:17 33.427183 -113.904494 107 23804ft 434kts
19-Apr-20 16:18 33.398955 -113.764289 107 22858ft 431kts
19-Apr-20 16:19 33.371105 -113.626627 107 21963ft 422kts
19-Apr-20 16:20 33.343574 -113.491422 107 21085ft 413kts
19-Apr-20 16:21 33.319542 -113.357714 104 19301ft 409kts
19-Apr-20 16:22 33.296838 -113.226140 103 17278ft 400kts
19-Apr-20 16:23 33.278711 -113.099380 102 15334ft 365kts
19-Apr-20 16:24 33.276691 -112.980399 89 13684ft 355kts
19-Apr-20 16:25 33.279537 -112.864870 88 12107ft 342kts
19-Apr-20 16:26 33.302862 -112.761810 64 10994ft 316kts
19-Apr-20 16:27 33.337629 -112.669406 63 10106ft 289kts
19-Apr-20 16:28 33.370451 -112.583562 63 8900ft 280kts
19-Apr-20 16:29 33.402032 -112.500595 63 8024ft 260kts
19-Apr-20 16:30 33.427740 -112.421733 78 7026ft 254kts
19-Apr-20 16:31 33.429560 -112.337814 90 6074ft 249kts
19-Apr-20 16:32 33.429279 -112.254725 89 4863ft 252kts
19-Apr-20 16:33 33.429046 -112.179417 89 3584ft 195kts
19-Apr-20 16:34 33.428939 -112.125660 88 2682ft 148kts
19-Apr-20 16:35 33.428870 -112.076425 90 1959ft 147kts
19-Apr-20 16:36 33.428925 -112.027917 90 1188ft 146kts
19-Apr-20 16:37 33.429213 -112.008051 57 1123ft 0kts
19-Apr-20 16:38 33.429322 -112.007859 50 1123ft 2kts
19-Apr-20 16:39 33.430686 -112.006251 2 1126ft 7kts
19-Apr-20 16:40 33.432706 -112.004575 40 1127ft 13kts
19-Apr-20 16:41 33.432857 -111.999881 89 1127ft 16kts
19-Apr-20 16:42 33.433684 -111.997302 68 1125ft 0kts
19-Apr-20 16:47 33.433684 -111.997302 68 1125ft 0kts

Navigation Log

Ident Type
Flight plan parsing failed, navigation log unavailable